createdAt,value
2023-06-29T05:11:56.893Z,2.85
2023-06-29T05:14:43.906Z,3.83
2023-06-29T05:17:11.787Z,3.95
2023-06-29T05:19:39.682Z,3.83
2023-06-29T05:22:07.451Z,3.80
2023-06-29T05:24:35.231Z,4.25
2023-06-29T05:27:04.341Z,3.17
2023-06-29T05:29:32.067Z,3.13
2023-06-29T05:31:59.886Z,3.83
2023-06-29T05:34:27.643Z,4.15
2023-06-29T05:36:55.448Z,3.65
2023-06-29T05:39:25.288Z,3.47
2023-06-29T05:41:53.026Z,3.67
2023-06-29T05:44:22.358Z,3.78
2023-06-29T05:46:50.248Z,3.85
2023-06-29T05:49:18.258Z,4.75
2023-06-29T05:51:46.175Z,4.32
2023-06-29T05:54:14.122Z,3.90
2023-06-29T05:57:09.071Z,3.83
2023-06-29T05:59:38.191Z,3.85
2023-06-29T06:02:06.265Z,3.20
2023-06-29T06:04:35.471Z,3.60
2023-06-29T06:07:03.296Z,3.78
2023-06-29T06:09:31.393Z,3.58
2023-06-29T06:12:02.260Z,3.40
2023-06-29T06:14:30.025Z,3.22
2023-06-29T06:16:59.102Z,2.45
2023-06-29T06:19:27.060Z,2.38
2023-06-29T06:21:54.967Z,3.45
2023-06-29T06:24:22.633Z,2.75
2023-06-29T06:26:50.385Z,2.72
2023-06-29T06:29:23.300Z,2.42
2023-06-29T06:31:51.473Z,2.85
2023-06-29T06:34:20.676Z,2.72
2023-06-29T06:36:49.118Z,3.28
2023-06-29T06:39:17.113Z,3.15
2023-06-29T06:41:44.846Z,2.30
2023-06-29T06:44:16.262Z,2.92
2023-06-29T06:46:44.069Z,2.17
2023-06-29T06:49:11.897Z,2.60
2023-06-29T06:51:40.982Z,2.50
2023-06-29T06:54:08.834Z,2.97
2023-06-29T06:56:38.621Z,2.53
2023-06-29T06:59:08.974Z,2.92
2023-06-29T07:01:41.547Z,1.48
2023-06-29T07:06:37.048Z,3.00
2023-06-29T07:09:08.442Z,1.55
2023-06-29T07:11:38.576Z,2.55
2023-06-29T07:14:15.776Z,2.58
2023-06-29T07:16:43.917Z,2.58
2023-06-29T07:24:06.375Z,2.05
2023-06-29T07:24:34.726Z,2.13
2023-06-29T07:27:02.623Z,3.33
2023-06-29T07:29:31.706Z,1.75
2023-06-29T07:31:59.593Z,1.55
2023-06-29T07:34:27.465Z,3.08
2023-06-29T07:36:55.482Z,2.53
2023-06-29T07:39:24.305Z,1.30
2023-06-29T07:41:53.523Z,1.10
2023-06-29T07:44:21.550Z,1.50
2023-06-29T07:46:49.662Z,1.70
2023-06-29T07:49:18.343Z,2.22
2023-06-29T07:51:46.611Z,1.75
2023-06-29T07:54:14.864Z,1.08
2023-06-29T07:59:15.007Z,1.35
2023-06-29T08:01:42.808Z,1.15
2023-06-29T08:04:11.037Z,2.20
2023-06-29T08:06:50.617Z,2.05
2023-06-29T08:09:19.524Z,1.85
2023-06-29T08:11:47.561Z,1.70
2023-06-29T08:14:17.186Z,2.33
2023-06-29T08:16:45.050Z,1.77
2023-06-29T08:19:15.325Z,1.23
2023-06-29T08:21:43.932Z,1.52
2023-06-29T08:24:12.196Z,1.50
2023-06-29T08:26:39.976Z,1.63
2023-06-29T08:29:19.390Z,1.55
2023-06-29T08:31:47.418Z,1.05
2023-06-29T08:34:15.506Z,1.50
2023-06-29T08:36:43.485Z,1.50
2023-06-29T08:39:11.395Z,1.15
2023-06-29T08:41:39.157Z,1.27
2023-06-29T08:44:08.397Z,2.22
2023-06-29T08:46:40.562Z,0.43
2023-06-29T08:49:08.855Z,1.35
2023-06-29T08:51:39.183Z,0.52
2023-06-29T08:54:07.665Z,0.77
2023-06-29T08:56:35.785Z,0.85
2023-06-29T08:59:03.849Z,1.60
2023-06-29T09:01:32.261Z,3.00
2023-06-29T09:04:01.891Z,1.42
2023-06-29T09:06:30.307Z,0.82
2023-06-29T09:08:58.339Z,1.27
2023-06-29T09:11:26.216Z,1.63
2023-06-29T09:13:54.139Z,1.63
2023-06-29T09:16:22.397Z,0.47
2023-06-29T09:18:55.230Z,0.85
2023-06-29T09:21:24.892Z,0.70
2023-06-29T09:23:52.834Z,0.65
2023-06-29T09:26:20.604Z,1.48
2023-06-29T09:28:48.341Z,0.77
2023-06-29T09:31:16.046Z,1.33
2023-06-29T09:33:43.785Z,1.77
2023-06-29T09:36:13.277Z,1.35
2023-06-29T09:38:42.303Z,1.45
2023-06-29T09:41:11.294Z,1.05
2023-06-29T09:43:41.472Z,1.05
2023-06-29T09:46:10.023Z,1.83
2023-06-29T09:51:20.259Z,0.98
2023-06-29T09:53:49.479Z,2.03
2023-06-29T09:56:17.814Z,1.60
2023-06-29T09:58:47.242Z,1.88
2023-06-29T10:01:17.077Z,1.48
2023-06-29T10:03:45.279Z,1.23
2023-06-29T10:06:14.296Z,1.80
2023-06-29T10:08:42.337Z,1.50
2023-06-29T10:11:11.475Z,1.90
2023-06-29T10:13:42.004Z,1.48
2023-06-29T10:16:11.200Z,1.80
2023-06-29T10:18:41.411Z,1.30
2023-06-29T10:21:09.658Z,1.90
2023-06-29T10:23:38.256Z,1.90
2023-06-29T10:26:06.674Z,1.70
2023-06-29T10:28:36.563Z,1.63
2023-06-29T10:31:04.325Z,2.00
2023-06-29T10:33:32.148Z,1.55
2023-06-29T10:36:00.224Z,1.67
2023-06-29T10:38:32.741Z,1.63
2023-06-29T10:41:00.551Z,1.42
2023-06-29T10:43:29.420Z,1.30
2023-06-29T10:46:01.100Z,1.58
2023-06-29T10:48:47.242Z,2.13
2023-06-29T10:51:16.001Z,1.70
2023-06-29T10:53:48.735Z,0.98
2023-06-29T10:56:29.927Z,1.95
2023-06-29T10:58:57.630Z,1.77
2023-06-29T11:01:26.907Z,1.83
2023-06-29T11:03:54.857Z,1.70
2023-06-29T11:06:33.799Z,0.68
2023-06-29T11:09:02.643Z,1.60
2023-06-29T11:11:30.614Z,2.38
2023-06-29T11:13:58.504Z,1.95
2023-06-29T11:16:27.656Z,0.40
2023-06-29T11:18:55.982Z,3.30
2023-06-29T11:21:26.683Z,1.65
2023-06-29T11:23:54.388Z,0.90
2023-06-29T11:26:22.547Z,1.85
2023-06-29T11:28:50.309Z,0.40
2023-06-29T11:31:18.445Z,0.65
2023-06-29T11:33:50.414Z,1.10
2023-06-29T11:36:27.768Z,1.38
2023-06-29T11:39:05.385Z,1.02
2023-06-29T11:41:33.548Z,2.10
2023-06-29T11:44:01.742Z,1.75
2023-06-29T11:46:33.473Z,2.05
2023-06-29T11:49:04.360Z,1.50
2023-06-29T11:51:32.875Z,0.70
2023-06-29T11:54:01.067Z,1.90
2023-06-29T11:56:30.114Z,1.55
2023-06-29T11:58:58.009Z,2.22
2023-06-29T12:03:55.182Z,1.25
2023-06-29T12:06:24.511Z,1.33
2023-06-29T12:08:52.541Z,0.82
2023-06-29T12:11:22.852Z,1.40
2023-06-29T12:13:51.079Z,0.57
2023-06-29T12:18:50.879Z,1.63
2023-06-29T12:21:22.582Z,1.88
2023-06-29T12:23:52.467Z,1.42
2023-06-29T12:26:22.559Z,1.92
2023-06-29T12:28:50.400Z,1.88
2023-06-29T12:31:18.839Z,2.10
2023-06-29T12:33:46.721Z,1.92
2023-06-29T12:36:14.462Z,1.77
2023-06-29T12:38:42.333Z,1.88
2023-06-29T12:41:11.485Z,3.22
2023-06-29T12:43:39.388Z,2.60
2023-06-29T12:46:07.225Z,2.28
2023-06-29T12:48:35.042Z,1.80
2023-06-29T12:51:02.921Z,2.10
2023-06-29T12:53:31.001Z,1.95
2023-06-29T12:55:58.808Z,1.10
2023-06-29T12:58:28.040Z,2.13
2023-06-29T13:00:56.221Z,2.85
2023-06-29T13:03:24.523Z,2.20
2023-06-29T13:05:53.471Z,1.52
2023-06-29T13:08:21.513Z,3.78
2023-06-29T13:10:49.371Z,1.65
2023-06-29T13:13:17.245Z,2.97
2023-06-29T13:15:47.583Z,1.70
2023-06-29T13:18:16.541Z,1.08
2023-06-29T13:20:44.508Z,1.00
2023-06-29T13:23:12.356Z,2.60
2023-06-29T13:25:40.802Z,2.33
2023-06-29T13:28:08.953Z,4.38
2023-06-29T13:30:36.881Z,2.75
2023-06-29T13:33:06.692Z,2.15
2023-06-29T13:35:34.769Z,1.23
2023-06-29T13:38:02.649Z,1.40
2023-06-29T13:40:30.548Z,2.17
2023-06-29T13:42:58.862Z,1.70
2023-06-29T13:45:26.740Z,1.67
2023-06-29T13:47:59.961Z,1.15
2023-06-29T13:50:41.074Z,2.25
2023-06-29T13:53:09.938Z,1.73
2023-06-29T13:55:44.468Z,1.98
2023-06-29T13:58:12.634Z,2.05
2023-06-29T14:00:40.508Z,2.58
2023-06-29T14:03:08.533Z,2.50
2023-06-29T14:05:37.867Z,2.13
2023-06-29T14:08:06.332Z,2.17
2023-06-29T14:10:34.410Z,2.15
2023-06-29T14:13:02.186Z,2.15
2023-06-29T14:15:29.994Z,1.70
2023-06-29T14:17:57.956Z,2.30
2023-06-29T14:20:25.853Z,2.17
2023-06-29T14:22:55.164Z,2.08
2023-06-29T14:25:23.275Z,1.70
2023-06-29T14:27:51.052Z,3.08
2023-06-29T14:30:19.015Z,1.05
2023-06-29T14:32:51.333Z,2.30
2023-06-29T14:35:31.074Z,2.17
2023-06-29T14:38:13.327Z,2.08
2023-06-29T14:40:42.934Z,2.25
2023-06-29T14:43:12.025Z,2.15
2023-06-29T14:45:40.197Z,2.40
2023-06-29T14:48:08.139Z,2.10
2023-06-29T14:50:36.034Z,2.28
2023-06-29T14:53:05.501Z,2.63
2023-06-29T14:55:33.312Z,2.00
2023-06-29T14:58:01.881Z,1.10
2023-06-29T15:00:29.778Z,2.20
2023-06-29T15:02:57.889Z,1.98
2023-06-29T15:05:25.892Z,2.47
2023-06-29T15:07:53.688Z,2.03
2023-06-29T15:10:22.934Z,2.55
2023-06-29T15:12:52.182Z,1.83
2023-06-29T15:15:20.214Z,2.00
2023-06-29T15:17:48.104Z,2.38
2023-06-29T15:20:16.567Z,2.33
2023-06-29T15:22:46.415Z,2.10
2023-06-29T15:25:15.000Z,2.28
2023-06-29T15:27:44.365Z,2.45
2023-06-29T15:30:14.035Z,2.60
2023-06-29T15:32:41.955Z,2.97
2023-06-29T15:35:11.767Z,2.50
2023-06-29T15:37:39.710Z,2.20
2023-06-29T15:40:08.381Z,1.85
2023-06-29T15:42:36.246Z,2.22
2023-06-29T15:45:08.386Z,1.88
2023-06-29T15:47:37.315Z,2.05
2023-06-29T15:50:05.925Z,2.33
2023-06-29T15:52:34.249Z,2.67
2023-06-29T15:55:05.666Z,2.10
2023-06-29T15:57:34.043Z,1.80
2023-06-29T16:00:02.247Z,1.73
2023-06-29T16:02:41.008Z,2.88
2023-06-29T16:05:09.443Z,2.78
2023-06-29T16:07:38.575Z,2.40
2023-06-29T16:10:07.715Z,1.83
2023-06-29T16:12:35.959Z,2.75
2023-06-29T16:15:03.979Z,2.13
2023-06-29T16:17:31.869Z,2.28
2023-06-29T16:20:01.156Z,2.47
2023-06-29T16:22:29.331Z,2.00
2023-06-29T16:24:57.256Z,2.33
2023-06-29T16:27:25.183Z,2.47
2023-06-29T16:29:53.240Z,2.25
2023-06-29T16:32:21.207Z,2.22
2023-06-29T16:34:49.410Z,2.70
2023-06-29T16:37:19.021Z,2.80
2023-06-29T16:39:47.165Z,2.17
2023-06-29T16:42:15.818Z,2.67
2023-06-29T16:44:44.090Z,2.55
2023-06-29T16:47:12.037Z,2.38
2023-06-29T16:49:40.422Z,2.97
2023-06-29T16:52:09.008Z,1.80
2023-06-29T16:54:38.473Z,1.75
2023-06-29T16:57:06.596Z,2.58
2023-06-29T16:59:35.925Z,3.05
2023-06-29T17:02:03.949Z,2.17
2023-06-29T17:04:33.116Z,2.90
2023-06-29T17:07:00.931Z,2.72
2023-06-29T17:09:28.973Z,1.63
2023-06-29T17:11:58.315Z,2.47
2023-06-29T17:14:26.807Z,2.47
2023-06-29T17:16:55.327Z,2.75
2023-06-29T17:19:23.152Z,2.80
2023-06-29T17:21:51.004Z,1.95
2023-06-29T17:24:19.234Z,2.30
2023-06-29T17:26:46.989Z,0.90
2023-06-29T17:29:16.011Z,2.00
2023-06-29T17:31:43.895Z,2.95
2023-06-29T17:34:11.599Z,2.70
2023-06-29T17:36:39.307Z,2.45
2023-06-29T17:39:07.200Z,2.97
2023-06-29T17:41:34.919Z,2.63
2023-06-29T17:44:02.933Z,2.28
2023-06-29T17:46:32.448Z,1.30
2023-06-29T17:49:00.380Z,3.00
2023-06-29T17:51:28.365Z,2.85
2023-06-29T17:53:56.058Z,2.10
2023-06-29T17:56:23.848Z,2.85
2023-06-29T17:58:53.146Z,2.78
2023-06-29T18:01:21.206Z,1.92
2023-06-29T18:03:50.497Z,2.40
2023-06-29T18:06:19.320Z,2.25
2023-06-29T18:08:47.192Z,1.00
2023-06-29T18:11:14.985Z,1.40
2023-06-29T18:13:42.775Z,2.60
2023-06-29T18:16:10.663Z,2.08
2023-06-29T18:18:38.438Z,2.60
2023-06-29T18:21:07.472Z,3.22
2023-06-29T18:23:35.179Z,2.70
2023-06-29T18:26:03.654Z,4.00
2023-06-29T18:28:31.609Z,2.80
2023-06-29T18:30:59.529Z,2.63
2023-06-29T18:33:27.494Z,3.03
2023-06-29T18:35:55.316Z,2.78
2023-06-29T18:38:24.670Z,2.75
2023-06-29T18:40:53.111Z,2.67
2023-06-29T18:43:21.320Z,2.72
2023-06-29T18:45:50.610Z,2.50
2023-06-29T18:48:18.505Z,2.38
2023-06-29T18:50:46.917Z,3.35
2023-06-29T18:53:14.777Z,2.80
2023-06-29T18:55:46.082Z,3.25
2023-06-29T18:58:14.404Z,2.47
2023-06-29T19:00:42.115Z,2.80
2023-06-29T19:03:09.856Z,3.08
2023-06-29T19:05:37.743Z,2.92
2023-06-29T19:08:06.098Z,2.63
2023-06-29T19:10:34.155Z,2.92
2023-06-29T19:13:04.135Z,3.05
2023-06-29T19:15:31.855Z,3.05
2023-06-29T19:18:00.315Z,2.72
2023-06-29T19:20:28.668Z,1.90
2023-06-29T19:22:56.360Z,3.40
2023-06-29T19:25:24.128Z,2.88
2023-06-29T19:27:52.072Z,2.30
2023-06-29T19:30:21.385Z,3.28
2023-06-29T19:32:49.180Z,4.03
2023-06-29T19:35:17.233Z,2.70
2023-06-29T19:37:44.963Z,3.30
2023-06-29T19:40:13.184Z,3.35
2023-06-29T19:42:40.964Z,3.40
2023-06-29T19:45:11.103Z,2.08
2023-06-29T19:47:40.205Z,2.78
2023-06-29T19:50:08.466Z,1.40
2023-06-29T19:52:36.243Z,2.92
2023-06-29T19:55:04.103Z,2.65
2023-06-29T19:57:32.271Z,1.40
2023-06-29T20:00:00.452Z,4.97
2023-06-29T20:02:28.196Z,4.00
2023-06-29T20:04:57.778Z,4.05
2023-06-29T20:07:25.597Z,3.05
2023-06-29T20:09:53.669Z,3.30
2023-06-29T20:12:21.566Z,2.90
2023-06-29T20:14:49.655Z,2.70
2023-06-29T20:17:17.704Z,2.92
2023-06-29T20:19:45.853Z,3.83
2023-06-29T20:22:15.382Z,3.70
2023-06-29T20:24:43.153Z,4.50
2023-06-29T20:27:10.996Z,4.35
2023-06-29T20:29:39.684Z,3.00
2023-06-29T20:32:08.090Z,1.95
2023-06-29T20:34:36.115Z,3.70
2023-06-29T20:37:04.256Z,3.38
2023-06-29T20:39:33.517Z,3.33
2023-06-29T20:42:01.686Z,3.72
2023-06-29T20:44:34.136Z,2.10
2023-06-29T20:49:32.350Z,2.88
2023-06-29T20:52:00.696Z,3.15
2023-06-29T20:54:28.845Z,2.90
2023-06-29T20:56:58.102Z,2.85
2023-06-29T20:59:26.987Z,3.00
2023-06-29T21:01:55.580Z,3.38
2023-06-29T21:04:23.559Z,2.90
2023-06-29T21:06:51.580Z,3.13
2023-06-29T21:09:19.505Z,3.95
2023-06-29T21:11:47.505Z,3.10
2023-06-29T21:14:17.032Z,2.00
2023-06-29T21:16:45.366Z,3.00
2023-06-29T21:19:13.725Z,2.05
2023-06-29T21:21:42.137Z,3.13
2023-06-29T21:24:10.439Z,3.00
2023-06-29T21:26:38.758Z,2.72
2023-06-29T21:29:22.988Z,3.20
2023-06-29T21:31:58.393Z,2.28
2023-06-29T21:34:26.463Z,3.28
2023-06-29T21:36:55.954Z,3.65
2023-06-29T21:39:23.902Z,3.05
2023-06-29T21:41:52.313Z,3.00
2023-06-29T21:44:20.316Z,2.88
2023-06-29T21:46:48.278Z,3.35
2023-06-29T21:49:18.364Z,2.65
2023-06-29T21:51:46.609Z,3.10
2023-06-29T21:54:15.200Z,2.50
2023-06-29T21:56:43.373Z,3.22
2023-06-29T21:59:11.480Z,2.92
2023-06-29T22:01:39.576Z,3.08
2023-06-29T22:04:07.660Z,2.88
2023-06-29T22:06:37.525Z,2.88
2023-06-29T22:09:05.566Z,2.92
2023-06-29T22:11:33.556Z,3.50
2023-06-29T22:14:02.143Z,3.20
2023-06-29T22:16:30.081Z,3.42
2023-06-29T22:18:59.696Z,2.20
2023-06-29T22:21:28.268Z,3.00
2023-06-29T22:23:57.478Z,3.25
2023-06-29T22:26:26.080Z,3.13
2023-06-29T22:28:54.143Z,3.40
2023-06-29T22:31:22.444Z,3.08
2023-06-29T22:33:50.512Z,2.15
2023-06-29T22:36:19.059Z,1.63
2023-06-29T22:38:47.515Z,1.85
2023-06-29T22:41:16.757Z,1.95
2023-06-29T22:43:44.846Z,1.92
2023-06-29T22:46:12.603Z,2.28
2023-06-29T22:48:42.091Z,2.58
2023-06-29T22:51:10.098Z,3.25
2023-06-29T22:53:38.036Z,3.50
2023-06-29T22:56:05.948Z,2.00
2023-06-29T22:58:36.645Z,3.30
2023-06-29T23:01:04.368Z,2.90
2023-06-29T23:03:32.469Z,3.17
2023-06-29T23:06:00.642Z,3.78
2023-06-29T23:08:28.804Z,3.42
2023-06-29T23:10:57.543Z,2.47
2023-06-29T23:13:25.555Z,2.25
2023-06-29T23:15:55.314Z,3.20
2023-06-29T23:18:25.319Z,2.00
2023-06-29T23:20:56.240Z,2.25
2023-06-29T23:23:26.175Z,2.58
2023-06-29T23:25:54.306Z,3.33
2023-06-29T23:28:22.202Z,3.58
2023-06-29T23:30:49.961Z,2.65
2023-06-29T23:33:19.373Z,2.50
2023-06-29T23:35:47.767Z,3.65
2023-06-29T23:38:15.824Z,2.90
2023-06-29T23:40:44.090Z,3.42
2023-06-29T23:43:11.978Z,4.47
2023-06-29T23:45:39.939Z,3.45
2023-06-29T23:48:08.032Z,3.45
2023-06-29T23:50:39.828Z,3.08
2023-06-29T23:53:08.414Z,3.78
2023-06-29T23:55:36.746Z,2.70
2023-06-29T23:58:05.232Z,3.80
